sensor_id;sensor_type;location;lat;lon;timestamp;temperature;humidity
76263;DHT22;65080;50.908;6.916;2023-02-28T00:01:14;4.00;46.90
76263;DHT22;65080;50.908;6.916;2023-02-28T00:03:42;4.00;46.90
76263;DHT22;65080;50.908;6.916;2023-02-28T00:06:11;4.00;47.60
76263;DHT22;65080;50.908;6.916;2023-02-28T00:08:39;4.00;47.00
76263;DHT22;65080;50.908;6.916;2023-02-28T00:11:09;4.00;47.00
76263;DHT22;65080;50.908;6.916;2023-02-28T00:13:40;4.00;47.10
76263;DHT22;65080;50.908;6.916;2023-02-28T00:16:11;3.90;47.00
76263;DHT22;65080;50.908;6.916;2023-02-28T00:18:40;3.90;47.00
76263;DHT22;65080;50.908;6.916;2023-02-28T00:21:09;3.90;47.10
76263;DHT22;65080;50.908;6.916;2023-02-28T00:23:37;3.90;47.10
76263;DHT22;65080;50.908;6.916;2023-02-28T00:26:06;3.90;47.20
76263;DHT22;65080;50.908;6.916;2023-02-28T00:28:34;3.80;47.20
76263;DHT22;65080;50.908;6.916;2023-02-28T00:31:03;3.80;47.20
76263;DHT22;65080;50.908;6.916;2023-02-28T00:33:32;3.80;47.30
76263;DHT22;65080;50.908;6.916;2023-02-28T00:36:02;3.80;47.40
76263;DHT22;65080;50.908;6.916;2023-02-28T00:38:31;3.80;47.40
76263;DHT22;65080;50.908;6.916;2023-02-28T00:40:59;3.70;47.40
76263;DHT22;65080;50.908;6.916;2023-02-28T00:43:33;3.70;47.40
76263;DHT22;65080;50.908;6.916;2023-02-28T00:46:03;3.70;47.50
76263;DHT22;65080;50.908;6.916;2023-02-28T00:48:32;3.70;47.50
76263;DHT22;65080;50.908;6.916;2023-02-28T00:51:00;3.70;47.60
76263;DHT22;65080;50.908;6.916;2023-02-28T00:53:29;3.60;47.50
76263;DHT22;65080;50.908;6.916;2023-02-28T00:55:59;3.60;47.60
76263;DHT22;65080;50.908;6.916;2023-02-28T00:58:27;3.60;47.60
76263;DHT22;65080;50.908;6.916;2023-02-28T01:00:55;3.60;47.60
76263;DHT22;65080;50.908;6.916;2023-02-28T01:03:25;3.60;47.70
76263;DHT22;65080;50.908;6.916;2023-02-28T01:05:53;3.60;47.70
76263;DHT22;65080;50.908;6.916;2023-02-28T01:08:21;3.50;47.70
76263;DHT22;65080;50.908;6.916;2023-02-28T01:10:50;3.50;47.70
76263;DHT22;65080;50.908;6.916;2023-02-28T01:13:18;3.50;48.40
76263;DHT22;65080;50.908;6.916;2023-02-28T01:15:49;3.50;47.80
76263;DHT22;65080;50.908;6.916;2023-02-28T01:18:19;3.50;47.90
76263;DHT22;65080;50.908;6.916;2023-02-28T01:20:49;3.50;47.90
76263;DHT22;65080;50.908;6.916;2023-02-28T01:23:19;3.50;48.00
76263;DHT22;65080;50.908;6.916;2023-02-28T01:25:48;3.50;48.00
76263;DHT22;65080;50.908;6.916;2023-02-28T01:28:16;3.50;48.00
76263;DHT22;65080;50.908;6.916;2023-02-28T01:30:48;3.50;48.10
76263;DHT22;65080;50.908;6.916;2023-02-28T01:33:16;3.40;48.00
76263;DHT22;65080;50.908;6.916;2023-02-28T01:35:44;3.40;48.10
76263;DHT22;65080;50.908;6.916;2023-02-28T01:38:14;3.40;48.10
76263;DHT22;65080;50.908;6.916;2023-02-28T01:40:51;3.40;48.20
76263;DHT22;65080;50.908;6.916;2023-02-28T01:43:22;3.40;48.20
76263;DHT22;65080;50.908;6.916;2023-02-28T01:45:51;3.40;48.30
76263;DHT22;65080;50.908;6.916;2023-02-28T01:48:21;3.30;48.20
76263;DHT22;65080;50.908;6.916;2023-02-28T01:50:51;3.30;48.30
76263;DHT22;65080;50.908;6.916;2023-02-28T01:53:24;3.30;48.30
76263;DHT22;65080;50.908;6.916;2023-02-28T01:55:54;3.30;48.40
76263;DHT22;65080;50.908;6.916;2023-02-28T01:58:23;3.30;48.40
76263;DHT22;65080;50.908;6.916;2023-02-28T02:00:51;3.30;48.50
76263;DHT22;65080;50.908;6.916;2023-02-28T02:03:20;3.30;48.50
76263;DHT22;65080;50.908;6.916;2023-02-28T02:05:48;3.20;48.40
76263;DHT22;65080;50.908;6.916;2023-02-28T02:08:18;3.20;48.40
76263;DHT22;65080;50.908;6.916;2023-02-28T02:10:50;3.20;48.50
76263;DHT22;65080;50.908;6.916;2023-02-28T02:13:34;3.20;48.50
76263;DHT22;65080;50.908;6.916;2023-02-28T02:16:13;3.20;48.60
76263;DHT22;65080;50.908;6.916;2023-02-28T02:18:48;3.20;48.70
76263;DHT22;65080;50.908;6.916;2023-02-28T02:21:42;3.20;48.60
76263;DHT22;65080;50.908;6.916;2023-02-28T02:27:38;3.20;48.70
76263;DHT22;65080;50.908;6.916;2023-02-28T02:30:44;3.10;48.50
76263;DHT22;65080;50.908;6.916;2023-02-28T02:33:39;3.10;49.20
76263;DHT22;65080;50.908;6.916;2023-02-28T02:36:19;3.10;48.60
76263;DHT22;65080;50.908;6.916;2023-02-28T02:38:53;3.10;48.50
76263;DHT22;65080;50.908;6.916;2023-02-28T02:41:26;3.10;48.50
76263;DHT22;65080;50.908;6.916;2023-02-28T02:44:01;3.10;48.60
76263;DHT22;65080;50.908;6.916;2023-02-28T02:46:33;3.10;48.60
76263;DHT22;65080;50.908;6.916;2023-02-28T02:49:05;3.00;48.50
76263;DHT22;65080;50.908;6.916;2023-02-28T02:51:36;3.00;48.50
76263;DHT22;65080;50.908;6.916;2023-02-28T02:54:08;3.00;48.50
76263;DHT22;65080;50.908;6.916;2023-02-28T02:56:39;3.00;48.50
76263;DHT22;65080;50.908;6.916;2023-02-28T02:59:12;3.00;48.40
76263;DHT22;65080;50.908;6.916;2023-02-28T03:01:41;3.00;48.30
76263;DHT22;65080;50.908;6.916;2023-02-28T03:04:13;3.00;48.30
76263;DHT22;65080;50.908;6.916;2023-02-28T03:06:44;3.00;48.20
76263;DHT22;65080;50.908;6.916;2023-02-28T03:09:12;3.00;48.20
76263;DHT22;65080;50.908;6.916;2023-02-28T03:11:41;3.00;48.10
76263;DHT22;65080;50.908;6.916;2023-02-28T03:14:33;3.00;48.10
76263;DHT22;65080;50.908;6.916;2023-02-28T03:17:41;3.00;48.00
76263;DHT22;65080;50.908;6.916;2023-02-28T03:20:18;3.00;47.90
76263;DHT22;65080;50.908;6.916;2023-02-28T03:23:01;3.00;47.90
76263;DHT22;65080;50.908;6.916;2023-02-28T03:25:38;3.00;47.80
76263;DHT22;65080;50.908;6.916;2023-02-28T03:28:13;3.00;47.80
76263;DHT22;65080;50.908;6.916;2023-02-28T03:30:48;3.00;47.80
76263;DHT22;65080;50.908;6.916;2023-02-28T03:33:23;2.90;47.70
76263;DHT22;65080;50.908;6.916;2023-02-28T03:35:54;2.90;47.70
76263;DHT22;65080;50.908;6.916;2023-02-28T03:38:28;2.90;47.70
76263;DHT22;65080;50.908;6.916;2023-02-28T03:41:01;2.90;47.60
76263;DHT22;65080;50.908;6.916;2023-02-28T03:43:35;2.90;47.60
76263;DHT22;65080;50.908;6.916;2023-02-28T03:46:08;2.90;47.60
76263;DHT22;65080;50.908;6.916;2023-02-28T03:48:40;2.90;47.60
76263;DHT22;65080;50.908;6.916;2023-02-28T03:51:14;2.90;47.60
76263;DHT22;65080;50.908;6.916;2023-02-28T03:53:47;2.80;47.40
76263;DHT22;65080;50.908;6.916;2023-02-28T03:56:20;2.80;47.40
76263;DHT22;65080;50.908;6.916;2023-02-28T03:58:55;2.80;47.30
76263;DHT22;65080;50.908;6.916;2023-02-28T04:01:30;2.80;47.20
76263;DHT22;65080;50.908;6.916;2023-02-28T04:03:59;2.80;47.30
76263;DHT22;65080;50.908;6.916;2023-02-28T04:06:31;2.70;47.10
76263;DHT22;65080;50.908;6.916;2023-02-28T04:09:01;2.70;47.10
76263;DHT22;65080;50.908;6.916;2023-02-28T04:11:33;2.80;47.10
76263;DHT22;65080;50.908;6.916;2023-02-28T04:14:02;2.80;47.00
76263;DHT22;65080;50.908;6.916;2023-02-28T04:16:32;2.80;46.90
76263;DHT22;65080;50.908;6.916;2023-02-28T04:19:02;2.80;46.90
76263;DHT22;65080;50.908;6.916;2023-02-28T04:21:32;2.70;46.80
76263;DHT22;65080;50.908;6.916;2023-02-28T04:24:03;2.70;46.90
76263;DHT22;65080;50.908;6.916;2023-02-28T04:26:33;2.70;46.90
76263;DHT22;65080;50.908;6.916;2023-02-28T04:29:06;2.70;47.00
76263;DHT22;65080;50.908;6.916;2023-02-28T04:31:34;2.70;47.00
76263;DHT22;65080;50.908;6.916;2023-02-28T04:34:02;2.70;47.10
76263;DHT22;65080;50.908;6.916;2023-02-28T04:36:31;2.60;47.10
76263;DHT22;65080;50.908;6.916;2023-02-28T04:38:59;2.60;47.20
76263;DHT22;65080;50.908;6.916;2023-02-28T04:41:29;2.60;47.30
76263;DHT22;65080;50.908;6.916;2023-02-28T04:43:59;2.60;47.40
76263;DHT22;65080;50.908;6.916;2023-02-28T04:46:27;2.60;47.50
76263;DHT22;65080;50.908;6.916;2023-02-28T04:48:55;2.60;47.50
76263;DHT22;65080;50.908;6.916;2023-02-28T04:51:24;2.50;47.50
76263;DHT22;65080;50.908;6.916;2023-02-28T04:53:52;2.50;47.60
76263;DHT22;65080;50.908;6.916;2023-02-28T04:56:21;2.50;47.70
76263;DHT22;65080;50.908;6.916;2023-02-28T04:58:51;2.50;47.70
76263;DHT22;65080;50.908;6.916;2023-02-28T05:01:22;2.40;47.70
76263;DHT22;65080;50.908;6.916;2023-02-28T05:03:52;2.40;47.80
76263;DHT22;65080;50.908;6.916;2023-02-28T05:06:22;2.40;47.80
76263;DHT22;65080;50.908;6.916;2023-02-28T05:08:51;2.40;47.90
76263;DHT22;65080;50.908;6.916;2023-02-28T05:11:21;2.40;48.00
76263;DHT22;65080;50.908;6.916;2023-02-28T05:13:52;2.40;48.00
76263;DHT22;65080;50.908;6.916;2023-02-28T05:16:20;2.40;48.00
76263;DHT22;65080;50.908;6.916;2023-02-28T05:18:49;2.40;48.00
76263;DHT22;65080;50.908;6.916;2023-02-28T05:21:25;2.40;48.00
76263;DHT22;65080;50.908;6.916;2023-02-28T05:23:54;2.30;48.00
76263;DHT22;65080;50.908;6.916;2023-02-28T05:26:24;2.30;48.00
76263;DHT22;65080;50.908;6.916;2023-02-28T05:28:53;2.30;48.10
76263;DHT22;65080;50.908;6.916;2023-02-28T05:31:22;2.30;48.10
76263;DHT22;65080;50.908;6.916;2023-02-28T05:33:51;2.30;48.00
76263;DHT22;65080;50.908;6.916;2023-02-28T05:36:19;2.30;48.00
76263;DHT22;65080;50.908;6.916;2023-02-28T05:38:47;2.20;48.00
76263;DHT22;65080;50.908;6.916;2023-02-28T05:41:17;2.20;48.00
76263;DHT22;65080;50.908;6.916;2023-02-28T05:43:46;2.20;48.00
76263;DHT22;65080;50.908;6.916;2023-02-28T05:46:16;2.20;48.10
76263;DHT22;65080;50.908;6.916;2023-02-28T05:48:47;2.20;48.00
76263;DHT22;65080;50.908;6.916;2023-02-28T05:51:16;2.10;48.00
76263;DHT22;65080;50.908;6.916;2023-02-28T05:53:44;2.10;48.50
76263;DHT22;65080;50.908;6.916;2023-02-28T05:56:12;2.10;47.90
76263;DHT22;65080;50.908;6.916;2023-02-28T05:58:40;2.10;47.90
76263;DHT22;65080;50.908;6.916;2023-02-28T06:01:32;2.10;48.00
76263;DHT22;65080;50.908;6.916;2023-02-28T06:04:01;2.10;48.00
76263;DHT22;65080;50.908;6.916;2023-02-28T06:06:30;2.10;47.80
76263;DHT22;65080;50.908;6.916;2023-02-28T06:09:03;2.10;47.80
76263;DHT22;65080;50.908;6.916;2023-02-28T06:11:32;2.20;47.90
76263;DHT22;65080;50.908;6.916;2023-02-28T06:14:01;2.10;47.80
76263;DHT22;65080;50.908;6.916;2023-02-28T06:16:32;2.20;47.70
76263;DHT22;65080;50.908;6.916;2023-02-28T06:19:03;2.20;47.70
76263;DHT22;65080;50.908;6.916;2023-02-28T06:21:31;2.20;47.60
76263;DHT22;65080;50.908;6.916;2023-02-28T06:23:59;2.20;47.50
76263;DHT22;65080;50.908;6.916;2023-02-28T06:26:28;2.20;47.50
76263;DHT22;65080;50.908;6.916;2023-02-28T06:28:56;2.20;47.50
76263;DHT22;65080;50.908;6.916;2023-02-28T06:31:25;2.20;47.50
76263;DHT22;65080;50.908;6.916;2023-02-28T06:33:55;2.20;47.40
76263;DHT22;65080;50.908;6.916;2023-02-28T06:36:23;2.20;47.40
76263;DHT22;65080;50.908;6.916;2023-02-28T06:38:52;2.30;47.50
76263;DHT22;65080;50.908;6.916;2023-02-28T06:41:23;2.30;47.40
76263;DHT22;65080;50.908;6.916;2023-02-28T06:43:53;2.30;47.30
76263;DHT22;65080;50.908;6.916;2023-02-28T06:46:21;2.30;47.80
76263;DHT22;65080;50.908;6.916;2023-02-28T06:48:50;2.30;47.20
76263;DHT22;65080;50.908;6.916;2023-02-28T06:51:20;2.30;47.20
76263;DHT22;65080;50.908;6.916;2023-02-28T06:53:49;2.30;47.00
76263;DHT22;65080;50.908;6.916;2023-02-28T06:56:18;2.40;47.70
76263;DHT22;65080;50.908;6.916;2023-02-28T06:58:48;2.40;47.00
76263;DHT22;65080;50.908;6.916;2023-02-28T07:01:16;2.40;46.90
76263;DHT22;65080;50.908;6.916;2023-02-28T07:03:45;2.40;47.00
76263;DHT22;65080;50.908;6.916;2023-02-28T07:06:21;2.40;46.80
76263;DHT22;65080;50.908;6.916;2023-02-28T07:08:50;2.40;46.70
76263;DHT22;65080;50.908;6.916;2023-02-28T07:11:19;2.50;46.80
76263;DHT22;65080;50.908;6.916;2023-02-28T07:13:49;2.50;46.60
76263;DHT22;65080;50.908;6.916;2023-02-28T07:16:18;2.50;46.50
76263;DHT22;65080;50.908;6.916;2023-02-28T07:18:46;2.50;46.40
76263;DHT22;65080;50.908;6.916;2023-02-28T07:21:15;2.50;46.40
76263;DHT22;65080;50.908;6.916;2023-02-28T07:23:45;2.60;47.00
76263;DHT22;65080;50.908;6.916;2023-02-28T07:26:14;2.60;46.30
76263;DHT22;65080;50.908;6.916;2023-02-28T07:28:45;2.60;46.10
76263;DHT22;65080;50.908;6.916;2023-02-28T07:31:14;2.60;46.10
76263;DHT22;65080;50.908;6.916;2023-02-28T07:33:44;2.60;46.00
76263;DHT22;65080;50.908;6.916;2023-02-28T07:36:13;2.70;46.00
76263;DHT22;65080;50.908;6.916;2023-02-28T07:38:43;2.70;46.00
76263;DHT22;65080;50.908;6.916;2023-02-28T07:41:16;2.70;45.80
76263;DHT22;65080;50.908;6.916;2023-02-28T07:43:45;2.80;45.80
76263;DHT22;65080;50.908;6.916;2023-02-28T07:46:15;2.80;45.70
76263;DHT22;65080;50.908;6.916;2023-02-28T07:48:44;2.90;45.60
76263;DHT22;65080;50.908;6.916;2023-02-28T07:51:12;2.90;45.50
76263;DHT22;65080;50.908;6.916;2023-02-28T07:53:41;3.00;45.40
76263;DHT22;65080;50.908;6.916;2023-02-28T07:56:09;3.00;45.50
76263;DHT22;65080;50.908;6.916;2023-02-28T07:58:39;3.10;45.20
76263;DHT22;65080;50.908;6.916;2023-02-28T08:01:09;3.10;45.00
76263;DHT22;65080;50.908;6.916;2023-02-28T08:03:38;3.20;45.00
76263;DHT22;65080;50.908;6.916;2023-02-28T08:06:11;3.20;44.90
76263;DHT22;65080;50.908;6.916;2023-02-28T08:08:42;3.20;44.70
76263;DHT22;65080;50.908;6.916;2023-02-28T08:11:11;3.30;44.60
76263;DHT22;65080;50.908;6.916;2023-02-28T08:13:41;3.40;44.40
76263;DHT22;65080;50.908;6.916;2023-02-28T08:16:12;3.40;44.10
76263;DHT22;65080;50.908;6.916;2023-02-28T08:18:44;3.40;43.80
76263;DHT22;65080;50.908;6.916;2023-02-28T08:21:12;3.50;43.70
76263;DHT22;65080;50.908;6.916;2023-02-28T08:23:41;3.60;44.20
76263;DHT22;65080;50.908;6.916;2023-02-28T08:26:09;3.70;43.40
76263;DHT22;65080;50.908;6.916;2023-02-28T08:28:38;3.70;43.10
76263;DHT22;65080;50.908;6.916;2023-02-28T08:31:12;3.80;42.90
76263;DHT22;65080;50.908;6.916;2023-02-28T08:33:42;3.90;42.70
76263;DHT22;65080;50.908;6.916;2023-02-28T08:36:11;3.90;42.50
76263;DHT22;65080;50.908;6.916;2023-02-28T08:38:40;4.00;42.30
76263;DHT22;65080;50.908;6.916;2023-02-28T08:41:11;4.10;42.10
76263;DHT22;65080;50.908;6.916;2023-02-28T08:43:40;4.20;42.10
76263;DHT22;65080;50.908;6.916;2023-02-28T08:46:12;4.30;42.40
76263;DHT22;65080;50.908;6.916;2023-02-28T08:48:41;4.40;41.60
76263;DHT22;65080;50.908;6.916;2023-02-28T08:51:11;4.50;41.40
76263;DHT22;65080;50.908;6.916;2023-02-28T08:53:40;4.50;41.10
76263;DHT22;65080;50.908;6.916;2023-02-28T08:56:10;4.60;41.00
76263;DHT22;65080;50.908;6.916;2023-02-28T08:58:39;4.70;40.80
76263;DHT22;65080;50.908;6.916;2023-02-28T09:01:10;4.80;40.50
76263;DHT22;65080;50.908;6.916;2023-02-28T09:03:39;4.90;40.30
76263;DHT22;65080;50.908;6.916;2023-02-28T09:06:09;4.90;39.80
76263;DHT22;65080;50.908;6.916;2023-02-28T09:08:39;5.00;39.60
76263;DHT22;65080;50.908;6.916;2023-02-28T09:11:08;5.10;39.40
76263;DHT22;65080;50.908;6.916;2023-02-28T09:13:37;5.20;39.20
76263;DHT22;65080;50.908;6.916;2023-02-28T09:16:08;5.30;39.10
76263;DHT22;65080;50.908;6.916;2023-02-28T09:18:39;5.30;38.90
76263;DHT22;65080;50.908;6.916;2023-02-28T09:21:09;5.40;38.50
76263;DHT22;65080;50.908;6.916;2023-02-28T09:23:41;5.40;38.40
76263;DHT22;65080;50.908;6.916;2023-02-28T09:26:13;5.40;38.30
76263;DHT22;65080;50.908;6.916;2023-02-28T09:28:42;5.50;38.10
76263;DHT22;65080;50.908;6.916;2023-02-28T09:31:12;5.60;38.20
76263;DHT22;65080;50.908;6.916;2023-02-28T09:33:42;5.60;37.80
76263;DHT22;65080;50.908;6.916;2023-02-28T09:36:10;5.60;37.50
76263;DHT22;65080;50.908;6.916;2023-02-28T09:38:39;5.60;37.30
76263;DHT22;65080;50.908;6.916;2023-02-28T09:41:13;5.60;37.20
76263;DHT22;65080;50.908;6.916;2023-02-28T09:43:45;5.50;37.10
76263;DHT22;65080;50.908;6.916;2023-02-28T09:46:26;5.50;37.00
76263;DHT22;65080;50.908;6.916;2023-02-28T09:48:58;5.50;36.90
76263;DHT22;65080;50.908;6.916;2023-02-28T09:51:35;5.50;36.80
76263;DHT22;65080;50.908;6.916;2023-02-28T09:54:13;5.50;36.60
76263;DHT22;65080;50.908;6.916;2023-02-28T09:56:49;5.50;36.60
76263;DHT22;65080;50.908;6.916;2023-02-28T09:59:42;5.40;36.40
76263;DHT22;65080;50.908;6.916;2023-02-28T10:02:19;5.40;36.20
76263;DHT22;65080;50.908;6.916;2023-02-28T10:04:53;5.40;36.40
76263;DHT22;65080;50.908;6.916;2023-02-28T10:07:32;5.50;36.50
76263;DHT22;65080;50.908;6.916;2023-02-28T10:10:10;5.50;36.40
76263;DHT22;65080;50.908;6.916;2023-02-28T10:12:45;5.50;36.30
76263;DHT22;65080;50.908;6.916;2023-02-28T10:15:15;5.50;36.20
76263;DHT22;65080;50.908;6.916;2023-02-28T10:17:47;5.50;36.20
76263;DHT22;65080;50.908;6.916;2023-02-28T10:20:35;5.60;36.30
76263;DHT22;65080;50.908;6.916;2023-02-28T10:23:11;5.60;36.10
76263;DHT22;65080;50.908;6.916;2023-02-28T10:25:45;5.60;36.00
76263;DHT22;65080;50.908;6.916;2023-02-28T10:28:16;5.60;35.90
76263;DHT22;65080;50.908;6.916;2023-02-28T10:30:47;5.60;35.80
76263;DHT22;65080;50.908;6.916;2023-02-28T10:33:23;5.60;35.80
76263;DHT22;65080;50.908;6.916;2023-02-28T10:35:53;5.70;35.80
76263;DHT22;65080;50.908;6.916;2023-02-28T10:38:24;5.80;35.90
76263;DHT22;65080;50.908;6.916;2023-02-28T10:41:04;5.80;35.80
76263;DHT22;65080;50.908;6.916;2023-02-28T10:43:33;5.80;35.60
76263;DHT22;65080;50.908;6.916;2023-02-28T10:46:03;5.90;35.70
76263;DHT22;65080;50.908;6.916;2023-02-28T10:48:37;5.90;35.60
76263;DHT22;65080;50.908;6.916;2023-02-28T10:51:10;5.90;35.50
76263;DHT22;65080;50.908;6.916;2023-02-28T10:53:46;6.00;35.50
76263;DHT22;65080;50.908;6.916;2023-02-28T10:56:27;6.00;35.50
76263;DHT22;65080;50.908;6.916;2023-02-28T10:58:58;5.90;35.50
76263;DHT22;65080;50.908;6.916;2023-02-28T11:01:36;6.00;35.60
76263;DHT22;65080;50.908;6.916;2023-02-28T11:04:18;6.00;36.00
76263;DHT22;65080;50.908;6.916;2023-02-28T11:06:56;6.10;35.50
76263;DHT22;65080;50.908;6.916;2023-02-28T11:09:28;6.10;35.50
76263;DHT22;65080;50.908;6.916;2023-02-28T11:11:57;6.20;35.60
76263;DHT22;65080;50.908;6.916;2023-02-28T11:14:27;6.30;35.60
76263;DHT22;65080;50.908;6.916;2023-02-28T11:17:00;6.30;36.10
76263;DHT22;65080;50.908;6.916;2023-02-28T11:19:34;6.40;35.50
76263;DHT22;65080;50.908;6.916;2023-02-28T11:22:07;6.40;35.20
76263;DHT22;65080;50.908;6.916;2023-02-28T11:24:40;6.40;35.20
76263;DHT22;65080;50.908;6.916;2023-02-28T11:27:25;6.40;35.00
76263;DHT22;65080;50.908;6.916;2023-02-28T11:29:54;6.50;35.00
76263;DHT22;65080;50.908;6.916;2023-02-28T11:32:22;6.50;35.00
76263;DHT22;65080;50.908;6.916;2023-02-28T11:35:02;6.50;35.00
76263;DHT22;65080;50.908;6.916;2023-02-28T11:37:33;6.50;34.80
76263;DHT22;65080;50.908;6.916;2023-02-28T11:40:02;6.50;34.80
76263;DHT22;65080;50.908;6.916;2023-02-28T11:42:46;6.50;34.90
76263;DHT22;65080;50.908;6.916;2023-02-28T11:45:35;6.60;34.90
76263;DHT22;65080;50.908;6.916;2023-02-28T11:48:14;6.60;34.90
76263;DHT22;65080;50.908;6.916;2023-02-28T11:50:50;6.70;34.70
76263;DHT22;65080;50.908;6.916;2023-02-28T11:53:37;6.70;34.70
76263;DHT22;65080;50.908;6.916;2023-02-28T11:56:10;6.60;34.50
76263;DHT22;65080;50.908;6.916;2023-02-28T11:58:49;6.70;34.70
76263;DHT22;65080;50.908;6.916;2023-02-28T12:01:31;6.70;34.70
76263;DHT22;65080;50.908;6.916;2023-02-28T12:04:21;6.80;34.80
76263;DHT22;65080;50.908;6.916;2023-02-28T12:06:59;6.90;34.60
76263;DHT22;65080;50.908;6.916;2023-02-28T12:09:47;7.00;34.70
76263;DHT22;65080;50.908;6.916;2023-02-28T12:12:28;7.00;34.60
76263;DHT22;65080;50.908;6.916;2023-02-28T12:15:13;7.10;34.70
76263;DHT22;65080;50.908;6.916;2023-02-28T12:17:53;7.20;34.80
76263;DHT22;65080;50.908;6.916;2023-02-28T12:20:29;7.20;35.10
76263;DHT22;65080;50.908;6.916;2023-02-28T12:23:23;7.30;35.10
76263;DHT22;65080;50.908;6.916;2023-02-28T12:26:05;7.30;34.90
76263;DHT22;65080;50.908;6.916;2023-02-28T12:28:39;7.30;34.60
76263;DHT22;65080;50.908;6.916;2023-02-28T12:31:14;7.30;34.60
76263;DHT22;65080;50.908;6.916;2023-02-28T12:33:47;7.30;34.50
76263;DHT22;65080;50.908;6.916;2023-02-28T12:36:18;7.30;34.30
76263;DHT22;65080;50.908;6.916;2023-02-28T12:38:52;7.30;34.10
76263;DHT22;65080;50.908;6.916;2023-02-28T12:41:40;7.20;33.90
76263;DHT22;65080;50.908;6.916;2023-02-28T12:44:12;7.30;34.00
76263;DHT22;65080;50.908;6.916;2023-02-28T12:46:54;7.30;34.00
76263;DHT22;65080;50.908;6.916;2023-02-28T12:49:34;7.30;34.00
76263;DHT22;65080;50.908;6.916;2023-02-28T12:52:05;7.30;34.10
76263;DHT22;65080;50.908;6.916;2023-02-28T12:54:42;7.30;33.90
76263;DHT22;65080;50.908;6.916;2023-02-28T12:57:17;7.40;34.00
76263;DHT22;65080;50.908;6.916;2023-02-28T12:59:50;7.40;34.00
76263;DHT22;65080;50.908;6.916;2023-02-28T13:02:50;7.40;34.00
76263;DHT22;65080;50.908;6.916;2023-02-28T13:05:38;7.50;33.90
76263;DHT22;65080;50.908;6.916;2023-02-28T13:08:23;7.50;34.10
76263;DHT22;65080;50.908;6.916;2023-02-28T13:10:55;7.50;34.20
76263;DHT22;65080;50.908;6.916;2023-02-28T13:13:27;7.50;34.30
76263;DHT22;65080;50.908;6.916;2023-02-28T13:15:58;7.50;34.20
76263;DHT22;65080;50.908;6.916;2023-02-28T13:18:31;7.50;34.20
76263;DHT22;65080;50.908;6.916;2023-02-28T13:21:00;7.50;34.20
76263;DHT22;65080;50.908;6.916;2023-02-28T13:24:00;7.50;34.20
76263;DHT22;65080;50.908;6.916;2023-02-28T13:29:39;7.50;34.20
76263;DHT22;65080;50.908;6.916;2023-02-28T13:32:35;7.50;34.40
76263;DHT22;65080;50.908;6.916;2023-02-28T13:35:35;7.50;34.30
76263;DHT22;65080;50.908;6.916;2023-02-28T13:38:24;7.50;34.30
76263;DHT22;65080;50.908;6.916;2023-02-28T13:40:52;7.60;34.50
76263;DHT22;65080;50.908;6.916;2023-02-28T13:43:21;7.70;34.70
76263;DHT22;65080;50.908;6.916;2023-02-28T13:46:13;7.80;34.50
76263;DHT22;65080;50.908;6.916;2023-02-28T13:48:42;7.90;34.30
76263;DHT22;65080;50.908;6.916;2023-02-28T13:51:35;8.10;34.40
76263;DHT22;65080;50.908;6.916;2023-02-28T13:54:19;8.30;34.30
76263;DHT22;65080;50.908;6.916;2023-02-28T13:57:01;8.50;34.20
76263;DHT22;65080;50.908;6.916;2023-02-28T13:59:38;8.70;34.20
76263;DHT22;65080;50.908;6.916;2023-02-28T14:02:32;9.00;34.30
76263;DHT22;65080;50.908;6.916;2023-02-28T14:05:06;9.40;34.10
76263;DHT22;65080;50.908;6.916;2023-02-28T14:07:45;9.80;34.20
76263;DHT22;65080;50.908;6.916;2023-02-28T14:10:26;10.10;32.70
76263;DHT22;65080;50.908;6.916;2023-02-28T14:13:10;10.40;32.00
76263;DHT22;65080;50.908;6.916;2023-02-28T14:15:54;10.70;31.60
76263;DHT22;65080;50.908;6.916;2023-02-28T14:18:31;10.90;31.20
76263;DHT22;65080;50.908;6.916;2023-02-28T14:21:20;11.10;31.10
76263;DHT22;65080;50.908;6.916;2023-02-28T14:24:23;11.30;30.40
76263;DHT22;65080;50.908;6.916;2023-02-28T14:33:04;12.20;30.10
76263;DHT22;65080;50.908;6.916;2023-02-28T14:35:50;12.40;30.20
76263;DHT22;65080;50.908;6.916;2023-02-28T14:38:27;12.70;29.90
76263;DHT22;65080;50.908;6.916;2023-02-28T14:40:58;13.00;29.90
76263;DHT22;65080;50.908;6.916;2023-02-28T14:43:28;13.20;29.60
76263;DHT22;65080;50.908;6.916;2023-02-28T14:45:59;13.50;29.50
76263;DHT22;65080;50.908;6.916;2023-02-28T14:48:28;13.70;29.30
76263;DHT22;65080;50.908;6.916;2023-02-28T14:51:00;13.80;29.10
76263;DHT22;65080;50.908;6.916;2023-02-28T14:53:30;13.90;29.30
76263;DHT22;65080;50.908;6.916;2023-02-28T14:56:03;13.90;28.80
76263;DHT22;65080;50.908;6.916;2023-02-28T14:58:35;13.90;28.70
76263;DHT22;65080;50.908;6.916;2023-02-28T15:01:04;13.90;28.70
76263;DHT22;65080;50.908;6.916;2023-02-28T15:03:35;14.10;28.60
76263;DHT22;65080;50.908;6.916;2023-02-28T15:06:11;14.20;28.40
76263;DHT22;65080;50.908;6.916;2023-02-28T15:08:41;14.20;28.20
76263;DHT22;65080;50.908;6.916;2023-02-28T15:11:13;14.20;28.10
76263;DHT22;65080;50.908;6.916;2023-02-28T15:13:44;14.30;27.90
76263;DHT22;65080;50.908;6.916;2023-02-28T15:16:16;14.30;27.90
76263;DHT22;65080;50.908;6.916;2023-02-28T15:18:47;14.30;27.80
76263;DHT22;65080;50.908;6.916;2023-02-28T15:21:21;14.40;27.80
76263;DHT22;65080;50.908;6.916;2023-02-28T15:23:52;14.30;27.30
76263;DHT22;65080;50.908;6.916;2023-02-28T15:26:25;14.40;27.40
76263;DHT22;65080;50.908;6.916;2023-02-28T15:28:59;14.50;27.30
76263;DHT22;65080;50.908;6.916;2023-02-28T15:31:31;14.40;27.20
76263;DHT22;65080;50.908;6.916;2023-02-28T15:34:22;14.40;27.80
76263;DHT22;65080;50.908;6.916;2023-02-28T15:37:30;14.50;27.40
76263;DHT22;65080;50.908;6.916;2023-02-28T15:40:11;14.60;26.80
76263;DHT22;65080;50.908;6.916;2023-02-28T15:42:40;14.60;26.90
76263;DHT22;65080;50.908;6.916;2023-02-28T15:45:33;14.50;27.00
76263;DHT22;65080;50.908;6.916;2023-02-28T15:48:05;14.50;26.70
76263;DHT22;65080;50.908;6.916;2023-02-28T15:50:40;14.60;27.00
76263;DHT22;65080;50.908;6.916;2023-02-28T15:53:15;14.60;26.80
76263;DHT22;65080;50.908;6.916;2023-02-28T15:55:45;14.50;26.40
76263;DHT22;65080;50.908;6.916;2023-02-28T15:58:21;14.30;26.30
76263;DHT22;65080;50.908;6.916;2023-02-28T16:01:03;13.90;26.30
76263;DHT22;65080;50.908;6.916;2023-02-28T16:03:44;13.50;26.40
76263;DHT22;65080;50.908;6.916;2023-02-28T16:06:32;13.00;26.40
76263;DHT22;65080;50.908;6.916;2023-02-28T16:09:02;12.60;26.60
76263;DHT22;65080;50.908;6.916;2023-02-28T16:11:33;12.20;27.30
76263;DHT22;65080;50.908;6.916;2023-02-28T16:14:02;11.90;27.00
76263;DHT22;65080;50.908;6.916;2023-02-28T16:16:31;11.50;27.00
76263;DHT22;65080;50.908;6.916;2023-02-28T16:19:00;11.20;27.10
76263;DHT22;65080;50.908;6.916;2023-02-28T16:21:29;10.90;27.30
76263;DHT22;65080;50.908;6.916;2023-02-28T16:23:58;10.70;27.40
76263;DHT22;65080;50.908;6.916;2023-02-28T16:26:29;10.40;27.50
76263;DHT22;65080;50.908;6.916;2023-02-28T16:28:57;10.20;27.80
76263;DHT22;65080;50.908;6.916;2023-02-28T16:31:26;10.00;27.90
76263;DHT22;65080;50.908;6.916;2023-02-28T16:33:55;9.80;28.70
76263;DHT22;65080;50.908;6.916;2023-02-28T16:36:25;9.60;28.80